Fayetteville, AR

6:25 PM CDT on April 27, 2015 (GMT -0500)
Raincrow Rd | | Change Station
CLOSE
Current Station
Personal Weather Station
Location: Fayetteville, AR
Elevation: 1279 ft
Nearby Weather Stations

Elev 1279 ft 36.08 °N, 94.28 °W | Updated 3 minutes ago

Overcast
Overcast
62.8 °F
Feels Like 62.8 °F
N
1.0
Wind Variable Wind from NE
Gusts 5.0 mph

Today
High -- | Low -- °F
--% Chance of Precip.
Yesterday
High -- | Low -- °F
Precip. -- in
6:29 AM 8:00 PM
Waxing Gibbous, 68% visible
Pressure 29.93 in
Visibility 10.0 miles
Clouds Mostly Cloudy 8500 ft
Dew Point 39 °F
Humidity 42%
Rainfall 0.02 in
Snow Depth Not available.
UV 1 out of 12
Pollen 8.50 out of 12
Air Quality Not available.
Flu Activity Sporadic
METAR KFYV 272253Z 07011G15KT 10SM BKN085 17/03 A2993

More Conditions Fewer Conditions

Pressure 29.93 in
Visibility 10.0 miles
Clouds Mostly Cloudy 8500 ft
Dew Point 39 °F
Humidity 42%
Rainfall 0.02 in
Snow Depth Not available.
UV 1 out of 12
Pollen 8.50 out of 12
Air Quality Not available.
Flu Activity Sporadic
METAR KFYV 272253Z 07011G15KT 10SM BKN085 17/03 A2993

More Conditions Fewer Conditions

10-Day Weather Forecast

Almanac

Astronomy

Apr. 27, 2015 Rise Set
Actual Time
Civil Twilight
Nautical Twilight
Astronomical Twilight
Moon
Length of Visible Light
Length of Day
Tomorrow will be .
, % of the Moon is Illuminated

Today's Extremes

State Highs State Lows

Community

WunderPhotos

Upload Photos

1,817,472 photos uploaded!

WunderBlogs® & News

Nearby

Air Quality

  Air Quality AQ Index Pollutant
Not available.

Snow Depth

Station Depth Elevation

Earthquake Activity

City Distance Mag. Time & Date
Minimum magnitude displayed is 2.5.

Coastal Water Temperatures

Place Temperature

Stations

Nearby Weather Stations

Station Location Temp. Windchill Dew Point Humidity Wind Precip. Elev Updated Type